createdAt,value
2023-01-04T00:01:22.943Z,24.83
2023-01-04T00:03:50.646Z,22.02
2023-01-04T00:06:18.258Z,29.50
2023-01-04T00:08:45.413Z,22.75
2023-01-04T00:11:23.213Z,22.10
2023-01-04T00:13:52.572Z,20.83
2023-01-04T00:16:24.550Z,17.20
2023-01-04T00:18:52.892Z,17.10
2023-01-04T00:21:25.975Z,16.90
2023-01-04T00:23:55.015Z,17.52
2023-01-04T00:26:27.559Z,15.02
2023-01-04T00:29:05.974Z,23.52
2023-01-04T00:31:34.222Z,15.50
2023-01-04T00:34:03.077Z,14.45
2023-01-04T00:36:30.504Z,12.77
2023-01-04T00:39:09.046Z,10.70
2023-01-04T00:41:59.708Z,12.10
2023-01-04T00:44:29.248Z,17.48
2023-01-04T00:46:56.548Z,15.15
2023-01-04T00:49:24.050Z,13.75
2023-01-04T00:51:51.567Z,14.87
2023-01-04T00:54:19.296Z,12.65
2023-01-04T00:56:46.487Z,20.15
2023-01-04T00:59:15.551Z,15.20
2023-01-04T01:01:43.552Z,14.15
2023-01-04T01:04:13.349Z,13.68
2023-01-04T01:06:40.859Z,16.05
2023-01-04T01:09:08.520Z,13.52
2023-01-04T01:11:39.727Z,14.68
2023-01-04T01:14:10.801Z,15.18
2023-01-04T01:16:54.209Z,15.50
2023-01-04T01:19:23.340Z,20.10
2023-01-04T01:21:50.499Z,15.38
2023-01-04T01:24:19.291Z,13.62
2023-01-04T01:26:46.701Z,14.45
2023-01-04T01:29:13.815Z,15.57
2023-01-04T01:31:41.451Z,14.25
2023-01-04T01:34:09.309Z,12.02
2023-01-04T01:36:36.800Z,12.60
2023-01-04T01:39:05.119Z,14.73
2023-01-04T01:41:34.122Z,14.23
2023-01-04T01:44:04.624Z,10.98
2023-01-04T01:46:38.990Z,14.57
2023-01-04T01:49:32.742Z,11.75
2023-01-04T01:52:02.763Z,13.80
2023-01-04T01:54:33.344Z,13.27
2023-01-04T01:57:02.580Z,8.75
2023-01-04T01:59:30.268Z,11.45
2023-01-04T02:01:57.480Z,9.25
2023-01-04T02:04:24.885Z,9.93
2023-01-04T02:06:55.543Z,15.10
2023-01-04T02:09:23.167Z,10.30
2023-01-04T02:11:50.239Z,10.68
2023-01-04T02:14:27.719Z,10.60
2023-01-04T02:17:04.047Z,15.70
2023-01-04T02:19:46.494Z,8.45
2023-01-04T02:22:49.019Z,10.02
2023-01-04T02:25:22.062Z,10.13
2023-01-04T02:28:03.260Z,12.82
2023-01-04T02:31:12.047Z,10.32
2023-01-04T02:33:50.145Z,11.68
2023-01-04T02:36:27.194Z,10.48
2023-01-04T02:39:39.580Z,10.38
2023-01-04T02:42:21.356Z,10.10
2023-01-04T02:44:57.383Z,14.05
2023-01-04T02:47:47.430Z,11.55
2023-01-04T02:50:34.080Z,11.45
2023-01-04T02:53:03.621Z,11.10
2023-01-04T02:55:51.885Z,13.90
2023-01-04T02:58:31.346Z,13.62
2023-01-04T03:01:58.905Z,11.93
2023-01-04T03:05:20.659Z,11.18
2023-01-04T03:08:08.484Z,11.38
2023-01-04T03:10:40.999Z,17.77
2023-01-04T03:13:27.749Z,13.80
2023-01-04T03:16:06.972Z,12.90
2023-01-04T03:18:37.676Z,13.62
2023-01-04T03:21:08.147Z,11.77
2023-01-04T03:23:57.796Z,13.55
2023-01-04T03:26:50.270Z,12.37
2023-01-04T03:29:58.555Z,13.48
2023-01-04T03:32:51.451Z,15.27
2023-01-04T03:35:23.907Z,14.85
2023-01-04T03:38:17.099Z,15.57
2023-01-04T03:41:15.987Z,17.30
2023-01-04T03:44:08.072Z,15.02
2023-01-04T03:47:09.781Z,14.00
2023-01-04T03:49:43.050Z,15.13
2023-01-04T03:52:11.228Z,17.25
2023-01-04T03:54:40.613Z,16.12
2023-01-04T03:57:09.352Z,14.90
2023-01-04T03:59:41.545Z,21.45
2023-01-04T04:02:19.389Z,23.73
2023-01-04T04:05:05.532Z,42.58
2023-01-04T04:07:51.081Z,22.42
2023-01-04T04:10:18.516Z,18.70
2023-01-04T04:12:45.614Z,22.17
2023-01-04T04:15:13.665Z,29.98
2023-01-04T04:17:41.136Z,26.08
2023-01-04T04:20:08.781Z,20.10
2023-01-04T04:22:35.977Z,18.60
2023-01-04T04:25:03.429Z,20.70
2023-01-04T04:27:30.641Z,14.48
2023-01-04T04:29:57.687Z,15.82
2023-01-04T04:32:25.087Z,18.67
2023-01-04T04:34:52.140Z,14.93
2023-01-04T04:37:19.237Z,17.60
2023-01-04T04:39:46.635Z,14.90
2023-01-04T04:42:13.718Z,14.38
2023-01-04T04:44:40.774Z,15.05
2023-01-04T04:47:08.200Z,12.75
2023-01-04T04:49:35.246Z,14.80
2023-01-04T04:52:02.335Z,16.83
2023-01-04T04:54:29.709Z,13.23
2023-01-04T04:56:56.821Z,13.25
2023-01-04T04:59:23.911Z,14.85
2023-01-04T05:01:51.468Z,13.10
2023-01-04T05:04:19.728Z,11.07
2023-01-04T05:06:48.767Z,18.17
2023-01-04T05:09:16.450Z,13.93
2023-01-04T05:12:02.075Z,14.93
2023-01-04T05:14:29.632Z,14.30
2023-01-04T05:16:56.760Z,14.35
2023-01-04T05:19:23.922Z,11.57
2023-01-04T05:21:51.316Z,20.83
2023-01-04T05:24:18.393Z,40.58
2023-01-04T05:26:45.458Z,49.03
2023-01-04T05:29:32.751Z,55.30
2023-01-04T05:31:59.943Z,51.65
2023-01-04T05:34:27.463Z,40.75
2023-01-04T05:36:54.612Z,24.12
2023-01-04T05:39:21.790Z,33.10
2023-01-04T05:42:07.671Z,26.58
2023-01-04T05:44:34.736Z,17.70
2023-01-04T05:47:02.153Z,19.27
2023-01-04T05:49:29.204Z,18.77
2023-01-04T05:51:56.268Z,20.30
2023-01-04T05:54:23.606Z,20.33
2023-01-04T05:56:50.672Z,19.80
2023-01-04T05:59:17.733Z,28.90
2023-01-04T06:01:45.263Z,20.62
2023-01-04T06:04:12.849Z,24.55
2023-01-04T06:06:42.635Z,20.48
2023-01-04T06:09:09.713Z,18.98
2023-01-04T06:11:37.108Z,19.90
2023-01-04T06:14:04.220Z,20.02
2023-01-04T06:16:31.553Z,22.45
2023-01-04T06:18:58.980Z,19.02
2023-01-04T06:21:26.069Z,20.80
2023-01-04T06:23:53.629Z,19.37
2023-01-04T06:26:21.534Z,16.95
2023-01-04T06:28:48.635Z,20.62
2023-01-04T06:31:16.325Z,18.15
2023-01-04T06:33:43.757Z,17.33
2023-01-04T06:36:19.939Z,21.12
2023-01-04T06:38:48.642Z,20.65
2023-01-04T06:41:15.747Z,18.85
2023-01-04T06:43:42.882Z,20.15
2023-01-04T06:46:10.458Z,19.33
2023-01-04T06:48:37.567Z,21.98
2023-01-04T06:51:04.858Z,22.00
2023-01-04T06:53:32.282Z,22.13
2023-01-04T06:55:59.407Z,24.27
2023-01-04T06:58:26.482Z,21.95
2023-01-04T07:00:55.004Z,18.95
2023-01-04T07:03:22.662Z,21.20
2023-01-04T07:07:36.571Z,22.62
2023-01-04T07:10:09.479Z,24.40
2023-01-04T07:12:38.263Z,21.50
2023-01-04T07:15:39.104Z,22.60
2023-01-04T07:17:53.822Z,18.58
2023-01-04T07:20:21.451Z,20.30
2023-01-04T07:22:48.706Z,22.20
2023-01-04T07:25:15.883Z,20.33
2023-01-04T07:27:43.435Z,19.60
2023-01-04T07:30:11.463Z,20.98
2023-01-04T07:32:38.636Z,25.33
2023-01-04T07:35:06.340Z,24.42
2023-01-04T07:37:33.485Z,21.92
2023-01-04T07:40:00.603Z,20.60
2023-01-04T07:42:28.030Z,27.80
2023-01-04T07:44:55.167Z,29.65
2023-01-04T07:47:22.239Z,28.40
2023-01-04T07:49:50.047Z,35.33
2023-01-04T07:52:17.122Z,36.33
2023-01-04T07:54:44.204Z,33.83
2023-01-04T07:57:11.573Z,35.90
2023-01-04T07:59:38.633Z,29.65
2023-01-04T08:02:05.913Z,33.47
2023-01-04T08:04:35.321Z,31.60
2023-01-04T08:07:02.878Z,33.88
2023-01-04T08:09:29.993Z,37.38
2023-01-04T08:11:57.396Z,29.80
2023-01-04T08:14:24.504Z,25.88
2023-01-04T08:16:51.779Z,25.77
2023-01-04T08:19:21.001Z,28.95
2023-01-04T08:21:48.765Z,22.02
2023-01-04T08:24:17.991Z,15.35
2023-01-04T08:26:45.976Z,22.90
2023-01-04T08:29:13.489Z,20.17
2023-01-04T08:31:41.272Z,18.33
2023-01-04T08:34:10.143Z,20.50
2023-01-04T08:36:48.652Z,16.42
2023-01-04T08:39:16.401Z,17.98
2023-01-04T08:42:09.995Z,22.87
2023-01-04T08:44:41.128Z,17.83
2023-01-04T08:47:08.193Z,21.17
2023-01-04T08:49:35.369Z,28.65
2023-01-04T08:52:02.765Z,20.08
2023-01-04T08:54:29.882Z,23.40
2023-01-04T08:56:57.030Z,22.95
2023-01-04T08:59:24.420Z,25.27
2023-01-04T09:01:51.721Z,19.20
2023-01-04T09:04:18.932Z,63.50
2023-01-04T09:06:47.875Z,28.42
2023-01-04T09:09:15.223Z,23.25
2023-01-04T09:11:42.295Z,27.40
2023-01-04T09:14:10.536Z,23.02
2023-01-04T09:16:38.345Z,20.40
2023-01-04T09:19:06.231Z,21.62
2023-01-04T09:21:33.697Z,20.08
2023-01-04T09:24:00.871Z,22.08
2023-01-04T09:26:28.121Z,15.00
2023-01-04T09:28:56.693Z,14.20
2023-01-04T09:31:25.877Z,15.20
2023-01-04T09:36:41.154Z,23.23
2023-01-04T09:39:11.914Z,13.88
2023-01-04T09:41:56.950Z,20.05
2023-01-04T09:45:03.017Z,17.35
2023-01-04T09:47:37.073Z,18.95
2023-01-04T09:50:16.955Z,20.88
2023-01-04T09:53:19.874Z,16.92
2023-01-04T09:55:50.579Z,17.75
2023-01-04T09:58:27.166Z,21.20
2023-01-04T10:01:00.820Z,21.12
2023-01-04T10:03:34.539Z,18.87
2023-01-04T10:06:02.542Z,18.30
2023-01-04T10:08:31.498Z,22.70
2023-01-04T10:11:16.201Z,18.70
2023-01-04T10:13:49.808Z,22.75
2023-01-04T10:21:14.663Z,23.73
2023-01-04T10:22:49.822Z,19.10
2023-01-04T10:25:26.383Z,21.87
2023-01-04T10:28:12.189Z,24.25
2023-01-04T10:31:39.984Z,26.25
2023-01-04T10:34:18.738Z,22.05
2023-01-04T10:36:47.670Z,20.52
2023-01-04T10:39:19.954Z,26.20
2023-01-04T10:41:56.536Z,27.80
2023-01-04T10:44:42.586Z,25.20
2023-01-04T10:47:13.706Z,26.77
2023-01-04T10:49:49.217Z,23.87
2023-01-04T10:52:25.129Z,27.08
2023-01-04T10:55:02.004Z,22.75
2023-01-04T10:57:48.420Z,25.90
2023-01-04T11:00:19.698Z,21.58
2023-01-04T11:02:54.150Z,21.35
2023-01-04T11:05:25.790Z,18.98
2023-01-04T11:08:10.502Z,19.05
2023-01-04T11:11:00.491Z,20.42
2023-01-04T11:13:28.526Z,18.25
2023-01-04T11:15:55.736Z,24.98
2023-01-04T11:18:23.030Z,17.87
2023-01-04T11:20:50.381Z,18.70
2023-01-04T11:23:19.574Z,21.20
2023-01-04T11:25:56.115Z,21.60
2023-01-04T11:28:46.735Z,17.30
2023-01-04T11:31:51.519Z,17.67
2023-01-04T11:36:48.065Z,17.30
2023-01-04T11:39:27.122Z,19.98
2023-01-04T11:42:03.061Z,16.65
2023-01-04T11:44:35.330Z,19.75
2023-01-04T11:47:23.336Z,18.20
2023-01-04T11:49:52.728Z,19.45
2023-01-04T11:52:49.243Z,19.92
2023-01-04T11:55:28.314Z,19.67
2023-01-04T11:58:10.521Z,17.95
2023-01-04T12:00:38.213Z,19.60
2023-01-04T12:03:18.015Z,19.00
2023-01-04T12:05:45.288Z,19.33
2023-01-04T12:08:33.566Z,17.98
2023-01-04T12:11:03.678Z,16.10
2023-01-04T12:13:34.402Z,18.27
2023-01-04T12:16:10.683Z,14.13
2023-01-04T12:18:44.040Z,15.70
2023-01-04T12:21:18.434Z,17.35
2023-01-04T12:23:46.516Z,17.48
2023-01-04T12:26:14.328Z,18.50
2023-01-04T12:28:44.407Z,22.08
2023-01-04T12:31:21.689Z,18.45
2023-01-04T12:33:49.953Z,21.67
2023-01-04T12:36:19.123Z,22.87
2023-01-04T12:38:52.631Z,21.17
2023-01-04T12:41:24.912Z,26.02
2023-01-04T12:43:53.284Z,26.05
2023-01-04T12:46:48.631Z,22.27
2023-01-04T12:52:29.417Z,23.65
2023-01-04T12:55:00.167Z,22.67
2023-01-04T12:57:38.466Z,26.75
2023-01-04T13:00:13.045Z,26.25
2023-01-04T13:02:47.633Z,25.45
2023-01-04T13:08:11.381Z,30.23
2023-01-04T13:10:44.511Z,24.77
2023-01-04T13:13:39.467Z,25.77
2023-01-04T13:16:39.838Z,26.45
2023-01-04T13:19:18.960Z,26.52
2023-01-04T13:21:46.876Z,26.87
2023-01-04T13:24:23.604Z,30.75
2023-01-04T13:26:52.411Z,27.77
2023-01-04T13:29:22.558Z,29.17
2023-01-04T13:31:55.660Z,23.30
2023-01-04T13:34:31.741Z,29.57
2023-01-04T13:37:10.956Z,30.65
2023-01-04T13:39:44.339Z,25.73
2023-01-04T13:42:17.139Z,26.90
2023-01-04T13:47:44.760Z,24.52
2023-01-04T13:50:34.841Z,23.30
2023-01-04T13:53:08.016Z,21.67
2023-01-04T13:55:38.539Z,20.73
2023-01-04T13:58:18.166Z,20.12
2023-01-04T14:00:52.779Z,21.92
2023-01-04T14:03:44.688Z,21.55
2023-01-04T14:06:17.732Z,22.10
2023-01-04T14:08:54.124Z,22.23
2023-01-04T14:11:43.249Z,21.98
2023-01-04T14:14:20.867Z,24.15
2023-01-04T14:16:50.295Z,29.33
2023-01-04T14:20:02.529Z,26.92
2023-01-04T14:22:32.624Z,35.30
2023-01-04T14:25:21.034Z,31.40
2023-01-04T14:27:48.178Z,30.17
2023-01-04T14:30:18.802Z,27.20
2023-01-04T14:33:23.986Z,58.03
2023-01-04T14:38:28.928Z,33.15
2023-01-04T14:40:56.414Z,27.27
2023-01-04T14:43:35.075Z,24.08
2023-01-04T14:46:02.989Z,32.05
2023-01-04T14:48:30.612Z,51.08
2023-01-04T14:50:59.555Z,37.15
2023-01-04T14:53:27.547Z,49.47
2023-01-04T14:55:55.308Z,60.35
2023-01-04T14:58:22.819Z,43.30
2023-01-04T15:00:50.272Z,27.35
2023-01-04T15:03:17.662Z,28.80
2023-01-04T15:05:46.216Z,51.63
2023-01-04T15:08:13.697Z,40.75
2023-01-04T15:10:46.251Z,36.90
2023-01-04T15:13:16.687Z,50.65
2023-01-04T15:15:43.991Z,48.00
2023-01-04T15:18:11.230Z,36.60
2023-01-04T15:20:40.397Z,38.67
2023-01-04T15:23:08.697Z,33.60
2023-01-04T15:25:39.360Z,42.70
2023-01-04T15:28:07.527Z,31.92
2023-01-04T15:30:35.087Z,37.45
2023-01-04T15:33:02.239Z,65.95
2023-01-04T15:35:29.696Z,57.38
2023-01-04T15:37:56.903Z,46.50
2023-01-04T15:40:27.199Z,33.05
2023-01-04T15:43:00.547Z,41.03
2023-01-04T15:45:29.601Z,51.17
2023-01-04T15:48:03.117Z,56.10
2023-01-04T15:50:35.129Z,51.05
2023-01-04T15:53:03.176Z,41.15
2023-01-04T15:55:35.979Z,49.10
2023-01-04T15:58:05.788Z,48.33
2023-01-04T16:00:33.152Z,39.13
2023-01-04T16:03:00.653Z,40.90
2023-01-04T16:05:27.972Z,54.03
2023-01-04T16:07:55.122Z,51.45
2023-01-04T16:10:22.850Z,42.83
2023-01-04T16:12:56.525Z,39.33
2023-01-04T16:17:51.843Z,40.45
2023-01-04T16:20:19.365Z,41.85
2023-01-04T16:22:46.830Z,41.33
2023-01-04T16:25:14.315Z,47.97
2023-01-04T16:27:41.534Z,43.03
2023-01-04T16:30:13.484Z,43.28
2023-01-04T16:32:43.940Z,46.08
2023-01-04T16:35:11.920Z,47.20
2023-01-04T16:37:39.172Z,61.10
2023-01-04T16:40:08.220Z,53.50
2023-01-04T16:42:37.372Z,47.83
2023-01-04T16:45:05.342Z,53.78
2023-01-04T16:47:41.092Z,56.75
2023-01-04T16:50:10.003Z,61.60
2023-01-04T16:52:37.342Z,54.33
2023-01-04T16:55:06.014Z,54.78
2023-01-04T16:57:33.498Z,44.33
2023-01-04T17:00:00.685Z,41.78
2023-01-04T17:02:27.939Z,48.10
2023-01-04T17:04:59.625Z,65.28
2023-01-04T17:07:32.922Z,54.50
2023-01-04T17:10:01.231Z,76.60
2023-01-04T17:15:43.173Z,95.72
2023-01-04T17:18:04.360Z,87.53
2023-01-04T17:20:31.900Z,93.90
2023-01-04T17:22:59.138Z,97.22
2023-01-04T17:25:26.306Z,85.85
2023-01-04T17:27:55.164Z,75.90
2023-01-04T17:30:22.357Z,84.05
2023-01-04T17:32:49.548Z,95.93
2023-01-04T17:35:17.069Z,82.60
2023-01-04T17:37:44.213Z,79.75
2023-01-04T17:40:12.853Z,64.62
2023-01-04T17:42:42.919Z,82.88
2023-01-04T17:45:10.429Z,78.22
2023-01-04T17:47:37.578Z,76.12
2023-01-04T17:50:05.456Z,74.22
2023-01-04T17:52:32.618Z,73.70
2023-01-04T17:54:59.834Z,74.68
2023-01-04T17:57:29.549Z,84.13
2023-01-04T17:59:56.769Z,91.35
2023-01-04T18:02:23.929Z,132.82
2023-01-04T18:04:52.071Z,116.85
2023-01-04T18:07:24.876Z,147.70
2023-01-04T18:09:53.259Z,149.83
2023-01-04T18:12:21.359Z,154.30
2023-01-04T18:14:48.549Z,106.97
2023-01-04T18:17:16.081Z,90.68
2023-01-04T18:19:46.472Z,80.38
2023-01-04T18:22:13.880Z,85.65
2023-01-04T18:24:43.643Z,79.82
2023-01-04T18:27:21.961Z,96.80
2023-01-04T18:29:51.482Z,84.05
2023-01-04T18:32:18.738Z,96.53
2023-01-04T18:34:46.932Z,98.68
2023-01-04T18:37:16.175Z,121.32
2023-01-04T18:39:43.960Z,102.75
2023-01-04T18:42:11.038Z,145.77
2023-01-04T18:44:45.703Z,131.43
2023-01-04T18:47:15.630Z,142.27
2023-01-04T18:49:43.106Z,138.88
2023-01-04T18:52:10.199Z,117.72
2023-01-04T18:54:37.252Z,137.75
2023-01-04T18:57:05.184Z,120.22
2023-01-04T18:59:32.562Z,132.07
2023-01-04T19:02:01.567Z,155.68
2023-01-04T19:04:31.032Z,113.53
2023-01-04T19:06:58.266Z,87.12
2023-01-04T19:09:25.516Z,102.05
2023-01-04T19:11:52.951Z,87.43
2023-01-04T19:14:20.240Z,91.72
2023-01-04T19:16:50.078Z,86.55
2023-01-04T19:19:17.560Z,85.78
2023-01-04T19:21:44.927Z,75.78
2023-01-04T19:24:12.095Z,87.15
2023-01-04T19:26:39.555Z,78.47
2023-01-04T19:29:08.603Z,88.78
2023-01-04T19:31:35.917Z,66.20
2023-01-04T19:34:04.011Z,69.07
2023-01-04T19:36:31.268Z,81.30
2023-01-04T19:38:58.416Z,74.07
2023-01-04T19:41:33.382Z,91.90
2023-01-04T19:44:06.664Z,70.37
2023-01-04T19:46:34.400Z,83.68
2023-01-04T19:49:01.667Z,77.55
2023-01-04T19:51:28.907Z,70.70
2023-01-04T19:53:56.378Z,77.85
2023-01-04T19:56:23.573Z,64.43
2023-01-04T19:58:50.767Z,64.85
2023-01-04T20:01:19.992Z,66.90
2023-01-04T20:03:47.854Z,58.22
2023-01-04T20:06:15.891Z,68.50
2023-01-04T20:08:43.155Z,69.70
2023-01-04T20:11:11.427Z,64.00
2023-01-04T20:13:39.502Z,72.55
2023-01-04T20:16:09.710Z,64.47
2023-01-04T20:18:37.431Z,66.40
2023-01-04T20:21:10.568Z,52.33
2023-01-04T20:23:38.732Z,50.07
2023-01-04T20:26:12.756Z,58.25
2023-01-04T20:31:11.402Z,59.53
2023-01-04T20:33:38.769Z,64.50
2023-01-04T20:36:12.816Z,61.28
2023-01-04T20:38:41.145Z,54.47
2023-01-04T20:41:11.988Z,59.67
2023-01-04T20:43:39.210Z,40.20
2023-01-04T20:46:12.845Z,63.80
2023-01-04T20:48:41.481Z,47.70
2023-01-04T20:51:12.220Z,58.58
2023-01-04T20:53:39.657Z,57.92
2023-01-04T20:56:14.389Z,53.00
2023-01-04T20:58:45.695Z,59.30
2023-01-04T21:01:13.313Z,54.95
2023-01-04T21:03:40.848Z,64.70
2023-01-04T21:06:10.933Z,52.65
2023-01-04T21:08:39.519Z,38.45
2023-01-04T21:11:07.651Z,42.45
2023-01-04T21:13:35.492Z,69.85
2023-01-04T21:16:02.903Z,45.63
2023-01-04T21:18:30.535Z,56.78
2023-01-04T21:20:57.933Z,51.33
2023-01-04T21:23:26.500Z,44.28
2023-01-04T21:25:53.686Z,39.00
2023-01-04T21:28:21.872Z,40.83
2023-01-04T21:30:50.015Z,24.75
2023-01-04T21:33:17.679Z,20.27
2023-01-04T21:35:45.125Z,25.37
2023-01-04T21:38:12.573Z,21.60
2023-01-04T21:40:40.748Z,18.08
2023-01-04T21:43:17.844Z,18.92
2023-01-04T21:45:45.067Z,16.73
2023-01-04T21:48:12.417Z,19.45
2023-01-04T21:50:39.491Z,16.75
2023-01-04T21:53:06.632Z,16.62
2023-01-04T21:55:35.202Z,16.35
2023-01-04T21:58:02.848Z,19.80
2023-01-04T22:00:30.149Z,18.67
2023-01-04T22:02:57.626Z,17.48
2023-01-04T22:05:24.799Z,20.70
2023-01-04T22:07:51.908Z,16.17
2023-01-04T22:10:19.402Z,16.70
2023-01-04T22:12:47.909Z,15.73
2023-01-04T22:15:15.035Z,13.70
2023-01-04T22:17:42.409Z,19.10
2023-01-04T22:20:10.719Z,18.42
2023-01-04T22:22:37.830Z,16.23
2023-01-04T22:25:05.712Z,16.37
2023-01-04T22:27:32.895Z,15.68
2023-01-04T22:30:00.030Z,14.98
2023-01-04T22:32:28.245Z,16.80
2023-01-04T22:34:55.386Z,14.23
2023-01-04T22:37:22.471Z,17.30
2023-01-04T22:39:49.902Z,17.70
2023-01-04T22:42:17.006Z,15.50
2023-01-04T22:44:44.065Z,16.80
2023-01-04T22:47:11.438Z,11.88
2023-01-04T22:49:38.503Z,13.82
2023-01-04T22:52:05.643Z,12.00
2023-01-04T22:54:33.181Z,14.93
2023-01-04T22:57:00.540Z,15.30
2023-01-04T22:59:27.798Z,13.43
2023-01-04T23:01:55.286Z,12.75
2023-01-04T23:04:22.512Z,15.50
2023-01-04T23:06:49.669Z,15.93
2023-01-04T23:09:18.793Z,15.40
2023-01-04T23:11:45.946Z,16.90
2023-01-04T23:14:15.919Z,13.90
2023-01-04T23:16:44.358Z,16.05
2023-01-04T23:19:13.552Z,14.38
2023-01-04T23:21:40.849Z,14.40
2023-01-04T23:24:12.921Z,13.88
2023-01-04T23:26:40.381Z,12.63
2023-01-04T23:29:07.734Z,13.77
2023-01-04T23:31:34.862Z,12.35
2023-01-04T23:34:04.623Z,18.15
2023-01-04T23:36:35.164Z,13.02
2023-01-04T23:39:05.298Z,16.00
2023-01-04T23:41:44.693Z,15.40
2023-01-04T23:44:12.123Z,15.93
2023-01-04T23:46:39.723Z,13.50
2023-01-04T23:49:06.939Z,15.77
2023-01-04T23:51:34.129Z,18.35
2023-01-04T23:54:01.600Z,17.37
2023-01-04T23:56:28.764Z,16.15
2023-01-04T23:58:56.112Z,15.23
